Friday, November 24, 2017, 8:15 AM EST
Back to Local

KWAL, Wallops Flight Fac Airport

Location: Wallops Island, VA, United States Lat: 37.933
Local Time: 8:15 AM EST (13:15 GMT) Lon: -75.467
Time Zone: US/Eastern Elev: 39 ft

Show me the last for .
Show Decoded

2017-11-24 07:54 METAR KWAL 241254Z AUTO 00000KT 10SM CLR 01/00 A3010 RMK AO2 SLP189 T00110000 =
2017-11-24 06:54 METAR KWAL 241154Z AUTO 29003KT 10SM CLR M03/M03 A3010 RMK AO2 SLP190 T10281033
                 11017 21028 53004 =
2017-11-24 05:54 METAR KWAL 241054Z AUTO 00000KT 10SM CLR M03/M03 A3009 RMK AO2 SLP187 T10281033
                 =
2017-11-24 04:54 METAR KWAL 240954Z AUTO 00000KT 10SM CLR M02/M03 A3009 RMK AO2 SLP187 T10221033
                 =
2017-11-24 03:54 METAR KWAL 240854Z AUTO 00000KT 10SM CLR M02/M03 A3009 RMK AO2 SLP186 T10221028
                 51002 =
2017-11-24 02:54 METAR KWAL 240754Z AUTO 30003KT 10SM CLR M03/M04 A3009 RMK AO2 SLP186 T10281039
                 =
2017-11-24 01:54 METAR KWAL 240654Z AUTO 00000KT 10SM CLR M02/M03 A3009 RMK AO2 SLP187 T10221033
                 =
2017-11-24 00:54 METAR KWAL 240554Z AUTO 00000KT 10SM CLR M02/M03 A3009 RMK AO2 SLP184 T10221033
                 10017 21022 50000 =
2017-11-23 23:54 METAR KWAL 240454Z AUTO 00000KT 10SM CLR M02/M03 A3010 RMK AO2 SLP188 T10171028
                 400561022 =
2017-11-23 22:54 METAR KWAL 240354Z AUTO 00000KT 10SM CLR M02/M03 A3010 RMK AO2 SLP189 T10171028
                 =
2017-11-23 21:54 METAR KWAL 240254Z AUTO 00000KT 10SM CLR M01/M03 A3008 RMK AO2 SLP184 T10061028
                 58000 =
2017-11-23 20:54 METAR KWAL 240154Z AUTO 00000KT 10SM CLR M01/M03 A3009 RMK AO2 SLP187 T10111028
                 =
2017-11-23 19:54 METAR KWAL 240054Z AUTO 00000KT 10SM CLR 00/M03 A3009 RMK AO2 SLP187 T00001028 =
2017-11-23 18:54 METAR KWAL 232354Z AUTO 00000KT 10SM CLR 01/M03 A3009 RMK AO2 SLP184 T00111028
                 10056 20011 55002 =
2017-11-23 17:54 METAR KWAL 232254Z AUTO 29003KT 10SM CLR 02/M03 A3008 RMK AO2 SLP183 T00171028 =
2017-11-23 16:54 METAR KWAL 232154Z AUTO 28003KT 10SM CLR 03/M03 A3009 RMK AO2 SLP187 T00281028 =
2017-11-23 15:54 METAR KWAL 232054Z AUTO 10SM CLR 04/M02 A3009 RMK AO2 SLP186 T00441022 55010 =
2017-11-23 14:54 METAR KWAL 231954Z AUTO 30006KT 10SM CLR 05/M03 A3008 RMK AO2 SLP184 T00501028 =
2017-11-23 13:54 METAR KWAL 231854Z AUTO 10SM CLR 05/M03 A3010 RMK AO2 SLP191 T00501033 =
2017-11-23 12:54 METAR KWAL 231754Z AUTO 33004KT 10SM CLR 06/M03 A3012 RMK AO2 SLP197 T00561033
                 10056 21006 57021 =
2017-11-23 11:54 METAR KWAL 231654Z AUTO 00000KT 10SM CLR 04/M04 A3014 RMK AO2 SLP203 T00441039 =
2017-11-23 10:54 METAR KWAL 231554Z AUTO 34006KT 10SM CLR 04/M04 A3016 RMK AO2 SLP211 T00441039 =
2017-11-23 09:54 METAR KWAL 231454Z AUTO 34005KT 10SM CLR 04/M04 A3018 RMK AO2 SLP217 T00391044
                 50004 =
2017-11-23 08:54 METAR KWAL 231354Z AUTO 01007KT 10SM CLR 02/M03 A3019 RMK AO2 SLP220 T00171033 =

Support USWX by starting your Amazon purchase here.